LiveATC.Net - Listen to live air traffic control over the Internet!

Find LiveATC Audio Streams


Airport/ARTCC Code

Frequency Search
(e.g., 124.400, 128.75)
Site-wide search
 


Browse LiveATC Feeds
LiveATC Coverage Map
Top 50 LiveATC Feeds
Bad Weather Areas

LiveATC FAQ
Offer a LiveATC Feed
Contact LiveATC.net
Press Inquiries

LiveATC on iPhone
LiveATC on Android

Windows Phone
Windows 8/10

LiveATC Mobile
(Mobile browser)

ATC Audio Archives
Interesting Recordings

LiveATC Forums

Home Page
About LiveATC.net
Make a Donation
LiveATC Store

Terms of Use
Privacy Policy

Canadian Air Freqs

AIRMETs/SIGMETs

FAA Airport Status
Nat'l Airspace Status
Arrival Demand Charts


Server Software By:
Icecast.org
Liquidsoap


Current Potentially Bad Weather Airports
(updated every 30 minutes - sorted alphabetically by ICAO code)



This page lists LiveATC.net airport areas that may be interesting to listen to because of challenging flying (weather) conditions. Challenging weather conditions include low ceilings, limited visibility, high or gusty winds, or thunderstorms.

Updated: Thu Mar 23 12:10:01 UTC 2017
Click on airport name to go to that airport area's feeds.

CYHZ Del/Gnd/Twr/App Halifax International Airport (Halifax, CA-NS)
WX MAP UNAVAILABLENearest METAR:
CYHZ 231151Z 32026G32KT 3/4SM R14/4000VP6000FT/U -SN BLSN BKN012 M11/M13 A2988 RMK BLSN4SC3 SLP126
CYQI/CZQM CTAF/FIC/Center Yarmouth Airport (Yarmouth, CA-NS)
WX MAP UNAVAILABLENearest METAR:
CYQI 231100Z 35022G30KT 8SM -SHSN BKN031 M09/M15 A3010 RMK SC7 CVCTV CLD EMBDD SLP196
ENBO Approach Bodo Airport (Bodo, Norway)
WX MAP UNAVAILABLENearest METAR:
ENBO 231150Z 29019KT 9999 FEW012CB SCT025 M00/M05 Q1009 TEMPO 30025G35KT 1500 SHSNGS VV006
ENTC Tower/App Tromso Airport (Langnes, Norway)
WX MAP UNAVAILABLENearest METAR:
ENTC 231150Z 27015KT 9999 7000N VCSH VV024 M00/M02 Q1001 TEMPO 1000 SHSNGS VV007 RMK WIND 2600FT 31033G47KT
ENVA Gnd/Twr/App Vaernes Airport (Trondheim, Norway)
WX MAP UNAVAILABLENearest METAR:
ENVA 231150Z 27020KT 9999 VCSH FEW012 SCT025CB BKN035 01/M02 Q1019 TEMPO 0600 SHSN VV006 RMK WIND 670FT 28020KT
EPKK Gnd/Tower/App John Paul II Balice International Airport (Krakow, Poland)
WX MAP UNAVAILABLENearest METAR:
EPKK 231130Z 06012KT 9999 OVC006 06/05 Q1018
EPRZ Del/Twr/EPWW Radar Warszawa Control Zone (Jasionka, Poland)
WX MAP UNAVAILABLENearest METAR:
EPRZ 231130Z 09015KT 9999 OVC006 06/05 Q1020
KCPS Ground/Tower St Louis Downtown Airport (Cahokia/St Louis, US-IL)
kcpsNearest METAR:
KCPS 231153Z 11012KT 10SM OVC048 03/M01 A3031 RMK AO2 LTG DSNT SW AND W RAE25 SLP266 P0006 60007 70007 T00331011 10056 20028 53000
KDED/1J6 CTAF/UNICOM DeLand Municipal Airport-Sidney H Taylor Field (DeLand, US-FL)
kdedNearest METAR:
KDED 231155Z AUTO 05003KT 10SM SCT031 17/17 A3021 RMK AO2 LTG DSNT E AND SE
KDLH Gnd/Twr/App Duluth International Airport (Duluth, US-MN)
kdlhNearest METAR:
KDLH 231155Z 14010KT 7SM -SN SCT041 BKN049 OVC060 M02/M03 A3014 RMK AO2 SLP231 PCPN VRY LGT P0000 60000 T10221033 11006 21022 58020
KEVB Gnd/Twr New Smyrna Beach Municipal Airport (New Smyrna Beach, US-FL)
kevbNearest METAR:
KEVB 231150Z 11008G15KT 8SM TS-RA BKN020 19/16 A3023 RMK OCNL LTGCC TSN-SE MOV S
KFLG Ground/Tower Flagstaff Pulliam Airport (Flagstaff, US-AZ)
kflgNearest METAR:
KFLG 231157Z AUTO 24003KT 3/4SM -SN BR BKN007 OVC016 M01/M01 A2986 RMK AO2 SLP070 P0007 60066 70097 T10111011 10006 21011 56012
KFPR Gnd/Twr St Lucie County International Airport (Fort Pierce, US-FL)
kfprNearest METAR:
KFPR 231153Z 02004KT 10SM SCT029 BKN038 OVC070 21/19 A3016 RMK AO2 LTG DSNT NE SLP213 T02110189 10222 20194 53020 $
KGAO ILS Loc Monitor South Lafourche Leonard Miller Jr. Airport (Galliano, US-LA)
kgaoNearest METAR:
KGAO 231155Z AUTO 35004KT 1 1/4SM BR VV007 17/15 A3017 RMK AO2 T01660153 10186 20165
KJWY/2TS6 CTAF/Unicom Eagle's Nest Estates Airport (Midlothian, US-TX)
kjwyNearest METAR:
KJWY 231155Z AUTO 15010G14KT 10SM OVC009 17/17 A3005 RMK AO2 T01730172 10190 20173
KLFT Gnd/Twr/App Lafayette Regional Airport/Paul Fournet Field (Lafayette, US-LA)
klftNearest METAR:
KLFT 231153Z 05004KT 5SM -RA BR BKN002 OVC007 19/19 A3018 RMK AO2 SLP218 P0000 60000 T01940189 10206 20189 53010
KMCC CTAF/Del McClellan Airfield (Sacramento, US-CA)
kmccNearest METAR:
KMCC 231155Z AUTO 27004KT 1/2SM FG VV005 06/06 A3015 RMK AO2
KMCO Tower/App Orlando International Airport (Orlando, US-FL)
kmcoNearest METAR:
KMCO 231153Z 05008KT 10SM SCT038 SCT100 SCT250 19/16 A3020 RMK AO2 LTG DSNT E SLP226 CB DSNT NE-E 60000 T01940161 10211 20194 53018
KMCO App (Disney/Ovido Satellite) Orlando International Airport (Orlando, US-FL)
kmcoNearest METAR:
KSFB 231153Z 10007KT 10SM FEW014 FEW100 19/17 A3021 RMK AO2 LTG DSNT E AND SE SLP227 T01890167 10206 20183 53018
KMCO App (Disney/Ovido Satellite) Orlando International Airport (Orlando, US-FL)
kmcoNearest METAR:
KORL 231153Z 06006KT 10SM SCT044 19/17 A3020 RMK AO2 LTG DSNT E SLP231 T01890172 10211 20189 53018
KMDH Ground/Tower Southern Illinois Airport (Carbondale/Murphysboro, US-IL)
kmdhNearest METAR:
KMDH 231152Z 10004KT 10SM -RA FEW060 SCT080 OVC100 03/01 A3033 RMK AO2 LTG DSNT S RAB1058 SLP271 P0003 60003 70003 T00280006 10050 20028 50005
KMLB Twr/App Melbourne International Airport (Melbourne, US-FL)
kmlbNearest METAR:
KMLB 231153Z 08005KT 10SM FEW021 SCT060 SCT110 21/16 A3019 RMK AO2 LTG DSNT N SLP224 60000 T02060161 10233 20200 53023
KSTL Del/Gnd/Twr Lambert-St Louis International Airport (St. Louis, US-MO)
kstlNearest METAR:
KSTL 231151Z 11012KT 10SM -RA OVC041 04/M02 A3031 RMK AO2 LTG DSNT SW AND W RAE1057B49 SLP267 OCNL LTGICCG DSNT SW-W CB DSNT SW-W MOV SE P0000 60003 70003 T00441017 10067 20044 53002
KSUS App/Dep Spirit of St. Louis Airport (St. Louis, US-MO)
ksusNearest METAR:
KSUS 231154Z VRB04KT 10SM VCTS OVC046 04/M01 A3030 RMK AO2 LTG DSNT S-W PRESRR SLP265 60002 70002 T00441006 10067 20039 53002
KTSP CTAF Tehachapi Municipal Airport (Tehachapi, US-CA)
ktspNearest METAR:
KTSP 231155Z AUTO 30018G23KT M1/4SM FG OVC002 02/02 A3004 RMK AO2
KVRB App/ZMA Vero Beach Municipal Airport (Vero Beach, US-FL)
kvrbNearest METAR:
KVRB 231153Z 02008KT 9SM FEW050 FEW090 21/17 A3018 RMK AO2 LTG DSNT NE SLP217 T02060167 10222 20194 53021
LFLY Tower Lyon-Bron Airport (Bron, France)
WX MAP UNAVAILABLENearest METAR:
LFLY 231130Z AUTO 09008KT 060V140 9999 SCT046/// SCT080/// BKN100/// ///TCU 17/08 Q1008 TEMPO VRB20G40KT 2000 TSRAGS FEW010 BKN020CB
MMMY Tower/Approach General Mariano Escobedo International Airport (Monterrey, Mexico)
WX MAP UNAVAILABLENearest METAR:
MMMY 231145Z 10009KT 5SM OVC008 19/16 A2999 RMK SLP152 56013 963 8/6//
O85 CTAF/KRDD Twr/ZOA Redding Municipal Airport (Redding, US-CA)
krddNearest METAR:
KRDD 231153Z AUTO 14003KT 1/4SM FG VV001 04/03 A3011 RMK AO2 SLP196 70042 T00390033 10061 20033 50003
YPDN Gnd/Twr/App/Dep Darwin International Airport (Darwin, AU-NT)
WX MAP UNAVAILABLENearest METAR:
YPDN 231130Z 16004KT 9999 FEW018 SCT085 BKN350 27/24 Q1009 TEMPO 1200/1230 VRB20G35KT 1000 TSRA BKN010 SCT020CB RMK USE TAF FOR ARRIVALS AFTER 1230Z